Time;durP1;ratioP1;P1;durP2;ratioP2;P2;SDS_P1;SDS_P2;PMS_P1;PMS_P2;Temp;Humidity;BMP_temperature;BMP_pressure;BME280_temperature;BME280_humidity;BME280_pressure;Samples;Min_cycle;Max_cycle;Signal;HPM_P1;HPM_P2
2022/07/12 00:01:34;;;;;;;16.50;7.90;;;;;;;12.94;99.25;99104.66;5125086;28;20342;-71
2022/07/12 00:04:00;;;;;;;12.15;7.13;;;;;;;12.95;98.49;99096.69;5125045;28;20023;-71
2022/07/12 00:06:25;;;;;;;16.75;8.80;;;;;;;12.85;99.17;99095.16;5124955;28;20026;-71
2022/07/12 00:08:50;;;;;;;13.40;7.82;;;;;;;12.86;99.46;99099.56;5124963;28;20019;-71
2022/07/12 00:11:16;;;;;;;12.77;7.60;;;;;;;12.89;100.00;99091.56;5124917;28;20253;-71
2022/07/12 00:13:41;;;;;;;14.93;7.72;;;;;;;12.95;100.00;99094.06;5124781;28;20086;-71
2022/07/12 00:16:07;;;;;;;13.68;8.00;;;;;;;12.94;100.00;99094.97;5124327;28;20023;-71
2022/07/12 00:18:33;;;;;;;14.13;7.80;;;;;;;12.94;100.00;99102.88;5125042;28;20020;-71
2022/07/12 00:20:58;;;;;;;16.48;8.45;;;;;;;12.94;99.95;99097.59;5124808;28;20023;-71
2022/07/12 00:23:23;;;;;;;12.20;7.47;;;;;;;12.94;99.94;99104.66;5124708;28;20338;-71
2022/07/12 00:25:49;;;;;;;14.18;8.60;;;;;;;12.91;100.00;99105.59;5124530;28;20023;-71
2022/07/12 00:28:15;;;;;;;15.57;7.38;;;;;;;12.90;100.00;99097.69;5124601;28;20060;-71
2022/07/12 00:30:41;;;;;;;12.35;7.43;;;;;;;12.81;99.87;99097.88;5124609;28;20077;-71
2022/07/12 00:33:06;;;;;;;12.90;8.25;;;;;;;12.78;99.94;99096.19;5124654;28;20027;-71
2022/07/12 00:35:32;;;;;;;12.43;7.63;;;;;;;12.76;99.92;99095.34;5124548;28;20050;-71
2022/07/12 00:37:57;;;;;;;13.73;8.07;;;;;;;12.65;100.00;99100.00;5124562;28;20060;-71
2022/07/12 00:40:22;;;;;;;18.17;9.68;;;;;;;12.54;100.00;99091.44;5124568;28;20047;-71
2022/07/12 00:42:48;;;;;;;13.27;7.95;;;;;;;12.62;100.00;99101.81;5124541;28;20307;-71
2022/07/12 00:45:13;;;;;;;16.48;8.50;;;;;;;12.62;100.00;99102.69;5124495;28;20078;-71
2022/07/12 00:47:45;;;;;;;18.15;8.75;;;;;;;12.60;100.00;99104.47;5124497;28;20207;-71
2022/07/12 00:50:14;;;;;;;15.75;8.90;;;;;;;12.61;100.00;99090.41;5124580;28;20024;-71
2022/07/12 00:52:40;;;;;;;12.98;7.18;;;;;;;12.53;100.00;99091.47;5124722;28;20025;-71
2022/07/12 00:55:07;;;;;;;14.55;8.05;;;;;;;12.57;100.00;99093.97;5124431;28;20030;-71
2022/07/12 00:57:33;;;;;;;14.27;7.28;;;;;;;12.54;100.00;99088.78;5124499;28;20215;-71
2022/07/12 00:59:59;;;;;;;13.40;7.85;;;;;;;12.50;100.00;99097.66;5124513;28;20030;-71
2022/07/12 01:02:25;;;;;;;17.90;8.30;;;;;;;12.48;100.00;99091.53;5124339;28;20226;-71
2022/07/12 01:04:53;;;;;;;15.18;8.55;;;;;;;12.45;100.00;99094.25;5124322;28;20362;-71
2022/07/12 01:07:18;;;;;;;14.00;8.00;;;;;;;12.44;100.00;99097.75;5124359;28;20024;-71
2022/07/12 01:09:45;;;;;;;11.20;7.50;;;;;;;12.25;100.00;99088.44;5124309;28;20023;-71
2022/07/12 01:12:10;;;;;;;15.13;8.68;;;;;;;12.28;100.00;99092.81;5124538;28;20020;-71
2022/07/12 01:14:37;;;;;;;14.50;8.45;;;;;;;12.37;100.00;99092.66;5124175;28;20319;-71
2022/07/12 01:17:03;;;;;;;12.75;7.78;;;;;;;12.21;100.00;99094.69;5124206;28;20023;-71
2022/07/12 01:19:29;;;;;;;14.32;8.43;;;;;;;12.18;100.00;99105.31;5124270;28;20027;-71
2022/07/12 01:21:57;;;;;;;17.65;8.30;;;;;;;12.30;100.00;99099.81;5124204;28;20031;-71
2022/07/12 01:24:22;;;;;;;16.80;8.82;;;;;;;12.33;100.00;99099.75;5124182;28;20250;-71
2022/07/12 01:26:49;;;;;;;14.25;8.48;;;;;;;12.34;100.00;99101.47;5124121;28;20076;-71
2022/07/12 01:29:15;;;;;;;12.82;7.70;;;;;;;12.28;100.00;99104.22;5127308;28;20039;-71
2022/07/12 01:31:41;;;;;;;17.00;8.38;;;;;;;12.14;100.00;99093.06;5128072;28;20022;-71
2022/07/12 01:34:07;;;;;;;16.20;8.07;;;;;;;12.07;100.00;99102.00;5128100;28;20033;-71
2022/07/12 01:36:32;;;;;;;13.95;8.57;;;;;;;12.12;100.00;99105.41;5128206;28;20019;-71
2022/07/12 01:38:58;;;;;;;16.30;7.25;;;;;;;12.07;100.00;99106.41;5127958;28;20366;-71
2022/07/12 01:41:24;;;;;;;14.18;7.80;;;;;;;12.00;100.00;99099.50;5127823;28;20020;-71
2022/07/12 01:43:51;;;;;;;15.40;9.10;;;;;;;12.08;100.00;99108.13;5127699;28;20086;-71
2022/07/12 01:46:17;;;;;;;13.88;9.07;;;;;;;12.08;100.00;99108.13;5127732;28;20046;-71
2022/07/12 01:48:42;;;;;;;13.40;7.93;;;;;;;11.95;100.00;99111.88;5127683;28;20028;-71
2022/07/12 01:51:07;;;;;;;14.68;7.32;;;;;;;11.92;100.00;99106.66;5127685;28;20024;-71
2022/07/12 01:53:35;;;;;;;12.77;7.93;;;;;;;11.96;100.00;99114.50;5127659;28;20024;-71
2022/07/12 01:56:02;;;;;;;12.18;7.57;;;;;;;11.94;100.00;99111.03;5127609;28;20095;-71
2022/07/12 01:58:27;;;;;;;12.80;7.60;;;;;;;11.90;100.00;99119.03;5127481;28;20246;-71
2022/07/12 02:00:54;;;;;;;13.52;7.28;;;;;;;11.90;100.00;99125.16;5109620;28;20015;-71
2022/07/12 02:03:19;;;;;;;13.48;7.72;;;;;;;11.89;100.00;99123.41;5127389;28;20023;-71
2022/07/12 02:05:46;;;;;;;15.13;7.38;;;;;;;11.87;100.00;99129.63;5127420;28;20092;-71
2022/07/12 02:08:12;;;;;;;12.07;7.10;;;;;;;11.80;100.00;99131.47;5127595;28;20203;-71
2022/07/12 02:10:37;;;;;;;14.13;8.45;;;;;;;11.65;100.00;99122.97;5127260;28;20094;-71
2022/07/12 02:13:04;;;;;;;13.38;7.82;;;;;;;11.58;100.00;99110.72;5127290;28;20024;-71
2022/07/12 02:15:29;;;;;;;15.32;8.18;;;;;;;11.55;100.00;99103.72;5127179;28;20049;-71
2022/07/12 02:17:54;;;;;;;12.23;6.90;;;;;;;11.51;100.00;99107.31;5127177;28;20027;-71
2022/07/12 02:20:20;;;;;;;14.88;7.15;;;;;;;11.47;100.00;99104.75;5127171;28;20211;-71
2022/07/12 02:22:45;;;;;;;12.52;7.90;;;;;;;11.51;100.00;99109.06;5127094;28;20073;-71
2022/07/12 02:25:10;;;;;;;13.50;8.10;;;;;;;11.51;100.00;99104.66;5127160;28;20088;-71
2022/07/12 02:27:39;;;;;;;12.27;7.20;;;;;;;11.46;100.00;99106.53;5126900;28;20043;-71
2022/07/12 02:30:06;;;;;;;12.27;7.22;;;;;;;11.32;100.00;99107.63;5126882;28;20088;-71
2022/07/12 02:32:31;;;;;;;15.52;7.75;;;;;;;11.29;100.00;99103.25;5127079;28;20065;-71
2022/07/12 02:34:57;;;;;;;13.55;8.07;;;;;;;11.43;100.00;99117.13;5127064;28;20086;-71
2022/07/12 02:37:22;;;;;;;15.00;8.43;;;;;;;11.43;100.00;99114.47;5126906;28;20323;-71
2022/07/12 02:39:48;;;;;;;15.13;6.95;;;;;;;11.31;100.00;99105.88;5126286;28;20019;-71
2022/07/12 02:42:13;;;;;;;10.90;7.25;;;;;;;11.19;100.00;99112.19;5126785;28;20138;-71
2022/07/12 02:44:39;;;;;;;10.45;6.80;;;;;;;11.02;99.64;99102.78;5126787;28;20011;-71
2022/07/12 02:47:05;;;;;;;12.55;7.75;;;;;;;11.00;100.00;99105.44;5127038;28;20023;-71
2022/07/12 02:49:30;;;;;;;12.85;7.88;;;;;;;11.07;100.00;99112.34;5126926;28;20029;-71
2022/07/12 02:51:56;;;;;;;11.63;7.53;;;;;;;11.02;100.00;99112.41;5126584;28;20076;-71
2022/07/12 02:54:21;;;;;;;12.75;7.32;;;;;;;10.83;100.00;99102.16;5126523;28;20315;-71
2022/07/12 02:56:46;;;;;;;11.88;7.30;;;;;;;10.80;100.00;99107.47;5126496;28;20031;-71
2022/07/12 02:59:12;;;;;;;14.38;7.38;;;;;;;10.74;100.00;99118.97;5126495;28;20027;-71
2022/07/12 03:01:37;;;;;;;15.00;8.40;;;;;;;10.76;100.00;99117.16;5126387;28;20421;-71
2022/07/12 03:04:03;;;;;;;12.05;7.57;;;;;;;10.79;100.00;99122.38;5126453;28;20311;-71
2022/07/12 03:06:28;;;;;;;14.65;7.45;;;;;;;10.83;100.00;99128.50;5126380;28;20019;-71
2022/07/12 03:08:53;;;;;;;13.43;7.82;;;;;;;10.66;100.00;99125.19;5126412;28;20019;-71
2022/07/12 03:11:19;;;;;;;14.07;7.75;;;;;;;10.61;100.00;99127.00;5126284;28;20030;-71
2022/07/12 03:13:44;;;;;;;12.35;7.25;;;;;;;10.62;100.00;99119.09;5126247;28;20024;-71
2022/07/12 03:16:09;;;;;;;18.30;9.00;;;;;;;10.65;100.00;99123.44;5126448;28;20212;-71
2022/07/12 03:18:35;;;;;;;12.07;7.22;;;;;;;10.63;100.00;99131.34;5126469;28;20020;-71
2022/07/12 03:21:00;;;;;;;13.30;8.32;;;;;;;10.64;100.00;99133.09;5126284;28;20060;-71
2022/07/12 03:23:26;;;;;;;11.63;7.07;;;;;;;10.65;100.00;99133.97;5126254;28;20090;-71
2022/07/12 03:25:52;;;;;;;13.75;7.80;;;;;;;10.65;100.00;99129.59;5126076;28;20020;-71
2022/07/12 03:28:17;;;;;;;11.07;7.03;;;;;;;10.62;100.00;99129.63;5125983;28;20035;-71
2022/07/12 03:30:43;;;;;;;11.07;7.53;;;;;;;10.62;100.00;99131.38;5126020;28;20226;-71
2022/07/12 03:33:08;;;;;;;10.93;6.88;;;;;;;10.60;100.00;99133.19;5126121;28;20020;-71
2022/07/12 03:35:35;;;;;;;10.50;7.22;;;;;;;10.58;100.00;99132.31;5125712;28;20047;-71
2022/07/12 03:38:00;;;;;;;11.68;7.35;;;;;;;10.61;100.00;99143.69;5125815;28;20019;-71
2022/07/12 03:40:26;;;;;;;13.60;6.80;;;;;;;10.57;100.00;99136.69;5125745;28;20053;-71
2022/07/12 03:42:52;;;;;;;12.82;6.75;;;;;;;10.59;100.00;99139.31;5126139;28;20022;-71
2022/07/12 03:45:17;;;;;;;12.60;7.50;;;;;;;10.52;100.00;99138.53;5125779;28;20019;-71
2022/07/12 03:47:43;;;;;;;11.57;6.43;;;;;;;10.56;100.00;99149.88;5125773;28;20219;-71
2022/07/12 03:50:12;;;;;;;11.65;6.82;;;;;;;10.51;100.00;99147.28;5125232;28;20024;-71
2022/07/12 03:52:37;;;;;;;7.68;4.80;;;;;;;10.54;100.00;99151.66;5125564;28;20350;-71
2022/07/12 03:55:04;;;;;;;9.43;6.25;;;;;;;10.47;100.00;99149.97;5125608;28;20011;-71
2022/07/12 03:57:29;;;;;;;11.60;6.97;;;;;;;10.48;100.00;99157.00;5125751;28;20030;-71
2022/07/12 03:59:56;;;;;;;11.73;6.80;;;;;;;10.49;100.00;99164.00;5125739;28;20015;-71
2022/07/12 04:02:22;;;;;;;12.43;6.18;;;;;;;10.43;100.00;99164.03;5125411;28;20092;-71
2022/07/12 04:04:47;;;;;;;9.98;6.57;;;;;;;10.55;100.00;99166.56;5125572;28;20020;-71
2022/07/12 04:07:13;;;;;;;10.07;6.47;;;;;;;10.50;100.00;99161.34;5125796;28;20020;-71
2022/07/12 04:09:38;;;;;;;20.08;6.50;;;;;;;10.29;100.00;99158.06;5125733;28;20083;-71
2022/07/12 04:12:04;;;;;;;12.40;7.43;;;;;;;10.29;100.00;99161.56;5125603;28;20019;-71
2022/07/12 04:14:30;;;;;;;9.60;6.28;;;;;;;10.37;100.00;99154.47;5125334;28;20020;-71
2022/07/12 04:16:56;;;;;;;10.35;6.00;;;;;;;10.37;100.00;99158.84;5125535;28;20027;-71
2022/07/12 04:19:27;;;;;;;10.55;6.07;;;;;;;10.40;100.00;99153.56;5125343;28;20023;-71
2022/07/12 04:21:55;;;;;;;9.88;6.43;;;;;;;10.48;100.00;99157.00;5125342;28;20026;-71
2022/07/12 04:24:21;;;;;;;8.93;5.80;;;;;;;10.56;100.00;99160.41;5125145;28;20262;-71
2022/07/12 04:26:47;;;;;;;8.80;5.85;;;;;;;10.62;100.00;99163.84;5125038;28;20347;-71
2022/07/12 04:29:12;;;;;;;7.95;5.70;;;;;;;10.69;100.00;99156.72;5125025;28;20019;-71
2022/07/12 04:31:37;;;;;;;11.55;6.93;;;;;;;10.76;100.00;99169.81;5125199;28;20020;-71
2022/07/12 04:34:03;;;;;;;11.32;6.43;;;;;;;10.85;100.00;99163.56;5125056;28;20022;-71
2022/07/12 04:36:28;;;;;;;12.15;7.15;;;;;;;10.90;100.00;99167.03;5124918;28;20023;-71
2022/07/12 04:38:53;;;;;;;11.45;7.65;;;;;;;10.94;100.00;99168.72;5124934;28;20215;-71
2022/07/12 04:41:19;;;;;;;12.45;7.65;;;;;;;11.34;100.00;99169.97;5124969;28;20215;-71
2022/07/12 04:43:44;;;;;;;12.65;6.88;;;;;;;13.14;95.19;99173.00;5124761;28;20092;-71
2022/07/12 04:46:11;;;;;;;9.93;5.50;;;;;;;14.66;85.19;99170.19;5124509;28;20015;-71
2022/07/12 04:48:37;;;;;;;9.02;5.38;;;;;;;15.77;79.67;99172.19;5124458;28;20050;-71
2022/07/12 04:51:03;;;;;;;9.40;5.72;;;;;;;16.42;75.45;99168.22;5124467;28;20023;-71
2022/07/12 04:53:29;;;;;;;9.52;4.88;;;;;;;17.15;72.30;99162.06;5124375;28;20027;-71
2022/07/12 04:55:55;;;;;;;9.65;5.03;;;;;;;17.64;69.43;99170.84;5124286;28;20353;-71
2022/07/12 04:58:21;;;;;;;7.45;4.88;;;;;;;17.98;68.14;99176.59;5124353;28;20315;-71
2022/07/12 05:00:46;;;;;;;10.52;5.60;;;;;;;18.31;68.17;99180.53;5124356;28;20320;-71
2022/07/12 05:03:12;;;;;;;7.65;4.70;;;;;;;18.86;66.89;99179.94;5127347;28;20099;-71
2022/07/12 05:05:37;;;;;;;9.55;5.53;;;;;;;18.93;65.37;99176.06;5128476;28;20020;-71
2022/07/12 05:08:04;;;;;;;8.00;5.13;;;;;;;19.48;64.93;99175.31;5128465;28;20211;-71
2022/07/12 05:10:29;;;;;;;9.77;5.70;;;;;;;19.83;63.31;99174.53;5128643;28;20308;-71
2022/07/12 05:12:55;;;;;;;11.93;5.22;;;;;;;20.10;63.37;99181.22;5128584;28;20026;-71
2022/07/12 05:15:20;;;;;;;7.43;4.85;;;;;;;20.57;61.57;99192.25;5128578;28;20022;-71
2022/07/12 05:17:46;;;;;;;10.10;4.95;;;;;;;20.78;62.16;99189.34;5128307;28;20069;-71
2022/07/12 05:20:11;;;;;;;7.15;4.55;;;;;;;20.67;61.69;99183.69;5128290;28;20023;-71
2022/07/12 05:22:36;;;;;;;8.27;4.50;;;;;;;21.10;61.37;99193.91;5128189;28;20192;-71
2022/07/12 05:25:03;;;;;;;7.93;5.22;;;;;;;21.48;60.80;99201.72;5128312;28;20342;-71
2022/07/12 05:27:28;;;;;;;7.60;4.32;;;;;;;20.71;63.79;99187.06;5127979;28;20039;-71
2022/07/12 05:29:53;;;;;;;7.30;4.70;;;;;;;21.47;62.53;99208.00;5128166;28;20023;-71
2022/07/12 05:32:19;;;;;;;6.43;4.78;;;;;;;21.93;60.94;99215.31;5128135;28;20020;-71
2022/07/12 05:34:44;;;;;;;8.75;4.47;;;;;;;22.09;60.13;99210.81;5127893;28;20045;-71
2022/07/12 05:37:09;;;;;;;6.53;4.50;;;;;;;21.72;60.20;99211.09;5127987;28;20117;-71
2022/07/12 05:39:35;;;;;;;7.15;5.30;;;;;;;21.39;61.00;99212.94;5127889;28;20046;-71
2022/07/12 05:42:01;;;;;;;9.50;4.93;;;;;;;21.76;60.69;99220.75;5127960;28;20024;-71
2022/07/12 05:44:26;;;;;;;8.13;5.32;;;;;;;22.11;61.05;99219.66;5128065;28;20019;-71
2022/07/12 05:46:51;;;;;;;8.82;4.40;;;;;;;22.91;59.56;99229.22;5127684;28;20335;-71
2022/07/12 05:49:17;;;;;;;5.57;4.15;;;;;;;23.77;56.98;99229.25;5127617;28;20267;-71
2022/07/12 05:54:26;;;;;;;8.13;4.78;;;;;;;24.55;54.79;99219.59;5127486;28;20030;-71
2022/07/12 05:56:51;;;;;;;5.65;4.35;;;;;;;25.15;53.55;99226.25;5127457;28;20024;-71
2022/07/12 05:59:20;;;;;;;6.90;4.35;;;;;;;25.14;53.00;99219.16;5127425;28;20041;-71
2022/07/12 06:01:45;;;;;;;7.75;4.20;;;;;;;24.68;53.84;99209.78;5127368;28;20043;-71
2022/07/12 06:04:10;;;;;;;5.40;4.15;;;;;;;24.61;55.42;99213.81;5127403;28;20026;-71
2022/07/12 06:06:36;;;;;;;5.00;4.05;;;;;;;25.16;54.38;99225.28;5127538;28;20019;-71
2022/07/12 06:09:03;;;;;;;9.77;4.45;;;;;;;24.97;53.89;99216.72;5127330;28;20061;-71
2022/07/12 06:11:29;;;;;;;8.23;4.20;;;;;;;25.20;55.52;99226.81;5127249;28;20262;-71
2022/07/12 06:13:54;;;;;;;6.25;3.78;;;;;;;26.00;53.47;99231.06;5126188;28;20020;-71
2022/07/12 06:16:19;;;;;;;8.48;4.13;;;;;;;25.41;54.78;99220.94;5127134;28;20298;-71
2022/07/12 06:18:45;;;;;;;4.88;3.88;;;;;;;26.29;53.47;99235.19;5127052;28;20019;-71
2022/07/12 06:21:10;;;;;;;8.20;3.75;;;;;;;26.29;52.57;99232.50;5127028;28;20023;-71
2022/07/12 06:23:35;;;;;;;4.78;3.30;;;;;;;26.98;51.30;99232.63;5127018;28;20281;-71
2022/07/12 06:26:01;;;;;;;4.32;2.95;;;;;;;27.45;49.30;99237.97;5126901;28;20022;-71
2022/07/12 06:28:27;;;;;;;4.95;3.20;;;;;;;26.34;51.99;99230.31;5127083;28;20060;-71
2022/07/12 06:30:52;;;;;;;6.00;2.83;;;;;;;26.62;51.81;99235.41;5126863;28;20024;-71
2022/07/12 06:33:18;;;;;;;4.30;2.90;;;;;;;27.17;50.70;99235.63;5126819;28;20028;-71
2022/07/12 06:35:43;;;;;;;4.68;3.03;;;;;;;27.27;51.03;99233.97;5126662;28;20211;-71
2022/07/12 06:38:08;;;;;;;3.95;2.50;;;;;;;28.00;48.48;99246.16;5126744;28;20377;-71
2022/07/12 06:40:34;;;;;;;4.30;2.78;;;;;;;28.49;48.70;99243.06;5126627;28;20027;-71
2022/07/12 06:42:59;;;;;;;5.40;2.60;;;;;;;29.00;47.81;99239.56;5126609;28;20034;-71
2022/07/12 06:45:25;;;;;;;3.20;2.22;;;;;;;29.01;47.45;99245.84;5126526;28;20066;-71
2022/07/12 06:47:51;;;;;;;3.30;2.10;;;;;;;29.29;47.47;99247.09;5126524;28;20024;-71
2022/07/12 06:50:17;;;;;;;6.28;2.35;;;;;;;29.23;46.22;99239.47;5126477;28;20023;-71
2022/07/12 06:52:42;;;;;;;4.82;2.03;;;;;;;30.40;45.38;99246.16;5126522;28;20244;-71
2022/07/12 06:55:08;;;;;;;3.53;1.67;;;;;;;29.95;43.70;99238.50;5126300;28;20023;-71
2022/07/12 06:57:34;;;;;;;3.10;1.60;;;;;;;29.14;45.04;99236.56;5126597;28;20024;-71
2022/07/12 07:00:00;;;;;;;4.38;1.52;;;;;;;27.84;47.30;99223.13;5126442;28;20020;-71
2022/07/12 07:02:26;;;;;;;1.98;1.25;;;;;;;28.19;47.43;99235.56;5126172;28;20019;-71
2022/07/12 07:04:51;;;;;;;1.83;1.10;;;;;;;29.32;44.06;99244.97;5126150;28;20022;-71
2022/07/12 07:07:17;;;;;;;1.08;0.90;;;;;;;28.94;43.76;99242.78;5126157;28;20023;-71
2022/07/12 07:09:42;;;;;;;0.80;0.80;;;;;;;29.70;44.58;99244.41;5126182;28;20027;-71
2022/07/12 07:12:08;;;;;;;0.60;0.60;;;;;;;29.37;43.33;99248.16;5126073;28;20030;-71
2022/07/12 07:14:33;;;;;;;1.17;0.90;;;;;;;28.94;43.51;99250.91;5125920;28;20026;-71
2022/07/12 07:16:59;;;;;;;0.80;0.75;;;;;;;29.34;43.86;99248.41;5125955;28;20319;-71
2022/07/12 07:19:26;;;;;;;0.70;0.70;;;;;;;29.77;42.42;99257.28;5125871;28;20027;-71
2022/07/12 07:21:55;;;;;;;0.50;0.50;;;;;;;29.30;42.13;99246.09;5125914;28;20342;-71
2022/07/12 07:24:21;;;;;;;1.27;0.80;;;;;;;28.96;42.18;99245.38;5125879;28;20211;-71
2022/07/12 07:26:47;;;;;;;4.78;0.70;;;;;;;28.97;44.20;99256.06;5125490;28;20036;-71
2022/07/12 07:31:56;;;;;;;1.98;0.77;;;;;;;29.76;42.12;99265.56;5125707;28;20060;-71
2022/07/12 07:34:23;;;;;;;0.90;0.80;;;;;;;30.06;41.11;99262.88;5125524;28;20023;-71
2022/07/12 07:36:49;;;;;;;1.77;0.70;;;;;;;30.56;41.09;99259.22;5125782;28;20023;-71
2022/07/12 07:39:14;;;;;;;1.25;0.88;;;;;;;30.02;39.84;99266.84;5125631;28;20365;-71
2022/07/12 07:41:39;;;;;;;4.55;0.50;;;;;;;29.49;41.25;99262.50;5125575;28;20034;-71
2022/07/12 07:44:05;;;;;;;0.70;0.70;;;;;;;29.59;41.12;99263.44;5125532;28;20349;-71
2022/07/12 07:46:30;;;;;;;0.77;0.52;;;;;;;29.90;40.72;99271.53;5125653;28;20026;-71
2022/07/12 07:48:56;;;;;;;0.75;0.68;;;;;;;30.34;40.17;99270.31;5125392;28;20015;-71
2022/07/12 07:51:21;;;;;;;1.85;0.70;;;;;;;30.13;40.25;99269.47;5125428;28;20027;-71
2022/07/12 07:53:47;;;;;;;0.80;0.80;;;;;;;29.28;41.66;99259.78;5125613;28;20371;-71
2022/07/12 07:56:12;;;;;;;4.32;0.70;;;;;;;29.84;41.40;99263.03;5125144;28;20019;-71
2022/07/12 07:58:37;;;;;;;0.88;0.80;;;;;;;29.94;41.12;99269.38;5125299;28;20031;-71
2022/07/12 08:01:03;;;;;;;0.70;0.70;;;;;;;29.38;40.76;99255.28;5125473;28;20019;-71
2022/07/12 08:03:28;;;;;;;1.75;0.60;;;;;;;29.44;41.23;99259.31;5125118;28;20026;-71
2022/07/12 08:05:57;;;;;;;0.98;0.80;;;;;;;29.53;41.11;99263.94;5125157;28;20019;-71
2022/07/12 08:08:23;;;;;;;1.45;0.90;;;;;;;30.54;39.85;99258.50;5124936;28;20034;-71
2022/07/12 08:10:50;;;;;;;10.38;0.90;;;;;;;30.37;40.10;99272.75;5125007;28;20027;-71
2022/07/12 08:13:15;;;;;;;4.00;0.80;;;;;;;30.44;39.11;99263.03;5124951;28;20204;-71
2022/07/12 08:15:41;;;;;;;1.30;0.93;;;;;;;30.42;39.30;99276.75;5124820;28;20022;-71
2022/07/12 08:18:06;;;;;;;0.73;0.68;;;;;;;30.39;39.25;99276.16;5125003;28;20019;-71
2022/07/12 08:20:32;;;;;;;2.53;0.88;;;;;;;30.24;39.19;99281.13;5124894;28;20019;-71
2022/07/12 08:22:57;;;;;;;1.38;0.60;;;;;;;30.51;39.22;99285.94;5124780;28;20039;-71
2022/07/12 08:25:22;;;;;;;0.85;0.70;;;;;;;30.69;40.08;99284.28;5124811;28;20079;-71
2022/07/12 08:27:48;;;;;;;1.08;0.82;;;;;;;30.08;39.61;99277.19;5124523;28;20058;-71
2022/07/12 08:30:14;;;;;;;2.33;1.00;;;;;;;30.22;40.27;99284.97;5124697;28;20019;-71
2022/07/12 08:32:43;;;;;;;1.38;1.02;;;;;;;29.59;41.42;99274.28;5124659;28;20020;-71
2022/07/12 08:35:09;;;;;;;1.65;0.80;;;;;;;30.65;39.35;99282.81;5124907;28;20020;-71
2022/07/12 08:37:34;;;;;;;3.55;1.27;;;;;;;31.63;38.83;99292.69;5124224;28;20326;-71
2022/07/12 08:39:59;;;;;;;1.73;1.10;;;;;;;32.30;37.47;99285.19;5124806;28;20323;-71
2022/07/12 08:42:25;;;;;;;3.08;0.90;;;;;;;32.39;36.77;99273.41;5124710;28;20119;-71
2022/07/12 08:44:55;;;;;;;1.30;1.10;;;;;;;31.19;37.36;99284.06;5124738;28;20023;-71
2022/07/12 08:47:20;;;;;;;2.67;1.00;;;;;;;30.87;37.35;99277.16;5124909;28;20031;-71
2022/07/12 08:50:18;;;;;;;2.13;1.00;;;;;;;29.90;39.64;99267.94;5124542;28;20315;-71
2022/07/12 08:52:46;;;;;;;1.17;0.98;;;;;;;30.33;38.56;99276.72;5124538;28;20024;-71
2022/07/12 08:55:38;;;;;;;1.48;1.20;;;;;;;30.37;38.95;99279.03;5124688;28;20020;-71
2022/07/12 08:58:08;;;;;;;1.70;1.10;;;;;;;30.40;37.64;99277.91;5124048;28;20069;-71
2022/07/12 09:00:34;;;;;;;1.77;1.05;;;;;;;30.19;38.97;99279.81;5124450;28;20223;-71
2022/07/12 09:03:01;;;;;;;1.63;0.90;;;;;;;30.38;37.80;99279.91;5124433;28;20201;-71
2022/07/12 09:05:28;;;;;;;0.80;0.80;;;;;;;31.68;37.47;99296.69;5124496;28;20057;-71
2022/07/12 09:08:10;;;;;;;1.00;0.90;;;;;;;31.75;37.03;99289.63;5124445;28;20023;-71
2022/07/12 09:10:54;;;;;;;1.25;0.82;;;;;;;31.88;36.80;99287.50;5124364;28;20019;-71
2022/07/12 09:13:20;;;;;;;2.05;0.80;;;;;;;32.14;38.33;99295.88;5124393;28;20100;-71
2022/07/12 09:15:47;;;;;;;1.25;0.77;;;;;;;31.66;36.56;99276.06;5124321;28;20197;-71
2022/07/12 09:18:15;;;;;;;2.15;1.30;;;;;;;31.11;37.20;99267.63;5124214;28;20091;-71
2022/07/12 09:20:43;;;;;;;1.23;0.85;;;;;;;31.30;37.60;99276.78;5124294;28;20334;-71
2022/07/12 09:23:11;;;;;;;3.15;1.00;;;;;;;31.05;38.54;99268.19;5124503;28;20140;-71
2022/07/12 09:25:44;;;;;;;2.33;0.95;;;;;;;31.92;36.02;99278.00;5124236;28;20188;-71
2022/07/12 09:28:10;;;;;;;3.42;0.93;;;;;;;32.10;37.15;99269.91;5124011;28;20040;-71
2022/07/12 09:30:38;;;;;;;3.00;1.13;;;;;;;31.78;36.64;99270.28;5124197;28;20035;-71
2022/07/12 09:36:07;;;;;;;1.98;0.90;;;;;;;31.34;37.32;99262.75;5124094;28;20054;-71
2022/07/12 09:38:35;;;;;;;1.95;0.80;;;;;;;32.39;35.52;99266.09;5124210;28;20073;-71
2022/07/12 09:41:01;;;;;;;1.52;0.80;;;;;;;32.86;37.10;99270.44;5124198;28;20027;-71
2022/07/12 09:43:26;;;;;;;1.05;0.80;;;;;;;31.81;35.91;99261.00;5124065;28;20382;-71
2022/07/12 09:45:52;;;;;;;0.70;0.70;;;;;;;31.99;36.78;99273.72;5124057;28;20019;-71
2022/07/12 09:48:21;;;;;;;0.90;0.70;;;;;;;31.87;37.17;99260.41;5124213;28;20042;-71
2022/07/12 09:50:49;;;;;;;1.58;0.90;;;;;;;31.50;36.49;99265.75;5127707;28;20023;-71
2022/07/12 09:53:44;;;;;;;1.15;0.80;;;;;;;31.43;37.32;99259.19;5127832;28;20090;-71
2022/07/12 09:56:12;;;;;;;2.40;0.80;;;;;;;30.39;37.85;99259.88;5117002;28;20043;-71
2022/07/12 09:58:52;;;;;;;1.55;0.90;;;;;;;30.74;37.46;99254.84;5127710;28;20020;-71
2022/07/12 10:01:18;;;;;;;2.70;0.85;;;;;;;31.02;37.63;99256.72;5127847;28;20083;-71
2022/07/12 10:03:44;;;;;;;1.27;0.90;;;;;;;31.12;38.08;99257.59;5127497;28;20023;-71
2022/07/12 10:06:12;;;;;;;0.80;0.80;;;;;;;30.71;37.86;99244.22;5127411;28;20015;-71
2022/07/12 10:08:37;;;;;;;2.55;1.00;;;;;;;30.86;38.25;99249.16;5109179;28;20057;-71
2022/07/12 10:11:03;;;;;;;2.05;0.88;;;;;;;30.67;38.57;99237.34;5127657;28;20016;-71
2022/07/12 10:13:30;;;;;;;1.05;0.70;;;;;;;31.62;38.46;99253.69;5127486;28;20019;-71
2022/07/12 10:16:00;;;;;;;0.82;0.80;;;;;;;31.28;38.26;99247.00;5127284;28;20268;-71
2022/07/12 10:18:27;;;;;;;0.90;0.73;;;;;;;31.99;37.35;99257.38;5127387;28;20019;-71
2022/07/12 10:20:53;;;;;;;1.60;0.90;;;;;;;31.31;37.12;99248.63;5127239;28;20019;-71
2022/07/12 10:23:36;;;;;;;1.10;0.90;;;;;;;30.67;38.72;99243.66;5127446;28;20020;-71
2022/07/12 10:26:25;;;;;;;1.10;0.80;;;;;;;31.25;37.44;99254.59;5126823;28;20019;-71
2022/07/12 10:29:01;;;;;;;0.80;0.70;;;;;;;31.66;36.96;99252.41;5112117;28;20081;-71
2022/07/12 10:31:30;;;;;;;1.52;1.00;;;;;;;31.03;37.77;99237.56;5127027;28;20335;-71
2022/07/12 10:34:10;;;;;;;1.13;0.80;;;;;;;30.95;37.79;99237.41;5126969;28;20023;-71
2022/07/12 10:36:54;;;;;;;1.48;0.98;;;;;;;31.84;38.11;99250.69;5126858;28;20348;-71
2022/07/12 10:39:20;;;;;;;5.20;0.90;;;;;;;31.31;37.78;99244.00;5126746;28;20342;-71
2022/07/12 10:42:05;;;;;;;0.88;0.80;;;;;;;31.53;38.87;99240.97;5126740;28;20192;-71
2022/07/12 10:44:34;;;;;;;2.15;0.73;;;;;;;31.79;36.46;99243.94;5126473;28;20020;-71
2022/07/12 10:47:00;;;;;;;0.90;0.65;;;;;;;32.34;36.25;99254.81;5126691;28;20031;-71
2022/07/12 10:49:28;;;;;;;3.22;0.80;;;;;;;32.17;36.97;99250.09;5126615;28;20090;-71
2022/07/12 10:52:11;;;;;;;1.45;0.77;;;;;;;32.15;36.64;99241.25;5126893;28;20311;-71
2022/07/12 10:54:52;;;;;;;1.95;0.90;;;;;;;32.48;36.82;99246.13;5126559;28;20043;-71
2022/07/12 10:57:37;;;;;;;2.75;1.15;;;;;;;32.46;36.87;99245.41;5126647;28;20055;-71
2022/07/12 11:00:04;;;;;;;1.05;0.88;;;;;;;32.00;36.81;99242.72;5126268;28;20034;-71
2022/07/12 11:02:30;;;;;;;1.48;0.75;;;;;;;31.24;36.31;99231.97;5108283;28;20019;-71
2022/07/12 11:04:56;;;;;;;1.88;0.70;;;;;;;30.63;37.15;99235.91;5126395;28;20030;-71
2022/07/12 11:07:23;;;;;;;0.80;0.70;;;;;;;30.45;37.44;99226.72;5126300;28;20015;-71
2022/07/12 11:09:52;;;;;;;1.38;0.80;;;;;;;30.62;38.11;99239.59;5126140;28;20020;-71
2022/07/12 11:12:18;;;;;;;0.98;0.90;;;;;;;30.47;38.94;99233.72;5126160;28;20196;-71
2022/07/12 11:14:45;;;;;;;1.13;0.98;;;;;;;31.44;37.72;99236.41;5125944;28;20027;-71
2022/07/12 11:17:10;;;;;;;1.15;0.57;;;;;;;31.01;37.00;99225.09;5126185;28;20022;-71
2022/07/12 11:19:36;;;;;;;0.70;0.70;;;;;;;31.26;37.45;99229.97;5126178;28;20020;-71
2022/07/12 11:22:01;;;;;;;0.98;0.90;;;;;;;31.28;38.74;99227.13;5126392;28;20020;-71
2022/07/12 11:24:28;;;;;;;1.92;0.90;;;;;;;31.91;37.69;99232.72;5126119;28;20023;-71
2022/07/12 11:26:54;;;;;;;1.08;0.55;;;;;;;32.00;37.06;99231.84;5126001;28;20128;-71
2022/07/12 11:29:21;;;;;;;1.05;0.82;;;;;;;31.60;36.42;99223.03;5126009;28;20327;-71
2022/07/12 11:31:47;;;;;;;2.05;1.10;;;;;;;31.04;36.51;99231.09;5126000;28;20023;-71
2022/07/12 11:34:26;;;;;;;0.65;0.60;;;;;;;30.67;38.34;99223.75;5125734;28;20327;-71